EFUT

Utti Air Base Airport

Utti / Valkeala, Finland
METAR EFUT 231050Z 29008KT 250V340 CAVOK 24/06 Q1019
Observed Flight Rules
May-23 @ 10:50 UTC (20 minutes ago) Visual Flight Rules
Wind Visibility Clouds
290° at 8 knots 10,000+ meters
  • Clear skies
Temperatures Readings
Current 24°C / 75°F
Dewpoint 6°C / 43°F
Humidity 31%
Altimeter 30.09" Hg
Pressure 1019 hPa
Elevation 100
METAR EFUT 231050Z 29008KT 250V340 CAVOK 24/06 Q1019
Observed Flight Rules
May-23 @ 10:50 UTC
(20 minutes ago)
VFR
Wind Visibility
290° at 8 knots 10,000+ meters
Clouds
  • Clear skies
Temperature Dewpoint
24°C / 75°F 6°C / 43°F
Humidity Altimeter Pressure
31% 30.09" Hg 1019 hPa